Time;durP1;ratioP1;P1;durP2;ratioP2;P2;SDS_P1;SDS_P2;PMS_P1;PMS_P2;Temp;Humidity;BMP_temperature;BMP_pressure;BME280_temperature;BME280_humidity;BME280_pressure;Samples;Min_cycle;Max_cycle;Signal;HPM_P1;HPM_P2
2022/07/12 00:02:14;;;;;;;2.85;1.40;;;;;;;21.14;35.10;99966.59;4495932;31;34077;-63
2022/07/12 00:04:42;;;;;;;4.28;1.62;;;;;;;21.12;34.98;99954.16;4496029;31;33363;-62
2022/07/12 00:07:10;;;;;;;3.70;1.17;;;;;;;20.96;35.21;99963.25;4498334;31;33919;-61
2022/07/12 00:09:38;;;;;;;4.03;1.62;;;;;;;20.94;35.47;99962.59;4495908;31;33229;-63
2022/07/12 00:12:06;;;;;;;5.55;1.58;;;;;;;20.79;35.75;99969.78;4497688;31;35129;-60
2022/07/12 00:14:33;;;;;;;4.50;1.50;;;;;;;20.72;35.81;99968.81;4496348;31;33175;-62
2022/07/12 00:17:02;;;;;;;2.37;1.20;;;;;;;20.67;36.06;99964.75;4498019;31;34912;-60
2022/07/12 00:19:30;;;;;;;3.72;1.35;;;;;;;20.60;35.96;99965.59;4498220;31;34176;-65
2022/07/12 00:21:57;;;;;;;4.97;1.60;;;;;;;20.43;36.29;99962.03;4499030;31;34913;-64
2022/07/12 00:24:25;;;;;;;4.05;1.92;;;;;;;20.43;36.85;99965.59;4492983;31;32349;-61
2022/07/12 00:26:53;;;;;;;2.25;0.77;;;;;;;20.54;36.01;99971.72;4491801;31;34677;-62
2022/07/12 00:29:21;;;;;;;3.20;1.30;;;;;;;20.53;35.86;99970.87;4488855;31;33757;-60
2022/07/12 00:31:49;;;;;;;5.57;1.65;;;;;;;20.42;36.06;99972.06;4494870;31;33522;-60
2022/07/12 00:34:17;;;;;;;4.15;1.30;;;;;;;20.46;35.98;99965.25;4497936;31;33957;-65
2022/07/12 00:36:44;;;;;;;4.20;1.48;;;;;;;20.48;36.15;99968.66;4494184;31;33582;-62
2022/07/12 00:39:12;;;;;;;4.90;1.50;;;;;;;20.47;35.91;99969.66;4499307;31;32799;-64
2022/07/12 00:41:40;;;;;;;6.40;1.60;;;;;;;20.45;35.88;99962.72;4494141;31;34084;-61
2022/07/12 00:44:07;;;;;;;4.18;1.55;;;;;;;20.37;36.44;99974.44;4497616;31;34677;-61
2022/07/12 00:46:35;;;;;;;5.35;1.37;;;;;;;20.43;35.81;99965.59;4493722;31;32666;-63
2022/07/12 00:49:02;;;;;;;3.33;1.48;;;;;;;20.46;35.69;99975.28;4487610;31;33667;-64
2022/07/12 00:51:30;;;;;;;3.97;1.62;;;;;;;20.53;35.70;99976.31;4495639;31;34110;-62
2022/07/12 00:53:58;;;;;;;2.97;1.30;;;;;;;20.60;35.48;99974.59;4493040;31;33119;-59
2022/07/12 00:56:26;;;;;;;3.83;1.40;;;;;;;20.52;35.70;99979.22;4485427;31;34613;-62
2022/07/12 00:58:54;;;;;;;6.37;1.70;;;;;;;20.46;36.10;99972.56;4494297;31;33901;-60
2022/07/12 01:01:22;;;;;;;5.18;1.40;;;;;;;20.29;36.17;99979.91;4496628;31;33850;-60
2022/07/12 01:03:51;;;;;;;5.40;1.60;;;;;;;20.49;35.82;99980.38;4491679;31;34096;-60
2022/07/12 01:06:20;;;;;;;4.85;1.90;;;;;;;20.51;35.84;99974.75;4494507;31;34795;-59
2022/07/12 01:08:47;;;;;;;6.45;2.17;;;;;;;20.58;35.67;99967.66;4497727;31;34057;-61
2022/07/12 01:11:16;;;;;;;5.35;1.80;;;;;;;20.49;35.90;99977.66;4495912;31;34033;-58
2022/07/12 01:13:47;;;;;;;5.07;1.83;;;;;;;20.57;35.91;99977.66;4497443;31;32945;-61
2022/07/12 01:16:15;;;;;;;8.65;2.00;;;;;;;20.66;35.94;99979.34;4496663;31;33567;-61
2022/07/12 01:18:44;;;;;;;5.37;1.87;;;;;;;20.64;36.06;99972.38;4498109;31;32695;-59
2022/07/12 01:21:18;;;;;;;5.85;1.95;;;;;;;20.74;35.70;99972.19;4496527;31;34040;-63
2022/07/12 01:23:47;;;;;;;7.80;2.45;;;;;;;20.71;35.68;99970.69;4493637;31;32086;-59
2022/07/12 01:26:14;;;;;;;7.60;2.30;;;;;;;20.69;35.54;99961.84;4481465;31;33280;-59
2022/07/12 01:28:42;;;;;;;7.47;2.78;;;;;;;20.46;36.04;99973.41;4497537;31;35351;-59
2022/07/12 01:31:10;;;;;;;6.87;2.60;;;;;;;20.33;36.38;99962.22;4491018;31;33929;-59
2022/07/12 01:33:37;;;;;;;9.05;2.72;;;;;;;20.39;36.27;99966.97;4496174;31;32411;-61
2022/07/12 01:36:05;;;;;;;7.60;2.85;;;;;;;20.34;36.34;99963.06;4495118;31;32649;-63
2022/07/12 01:38:33;;;;;;;6.53;2.25;;;;;;;20.29;36.49;99966.31;4496216;31;34962;-59
2022/07/12 01:41:00;;;;;;;8.93;2.62;;;;;;;20.21;36.67;99967.16;4496697;31;33852;-61
2022/07/12 01:43:28;;;;;;;6.07;2.08;;;;;;;20.07;36.95;99965.16;4497615;31;33631;-63
2022/07/12 01:45:56;;;;;;;4.47;2.42;;;;;;;20.06;37.11;99952.56;4495035;31;33968;-61
2022/07/12 01:48:23;;;;;;;6.18;2.78;;;;;;;20.07;37.14;99958.88;4492712;31;33791;-59
2022/07/12 01:50:51;;;;;;;5.40;2.25;;;;;;;20.01;37.24;99955.81;4495874;31;34143;-60
2022/07/12 01:53:19;;;;;;;9.20;2.62;;;;;;;19.99;37.25;99954.28;4498319;31;33653;-61
2022/07/12 01:55:46;;;;;;;7.28;2.37;;;;;;;19.97;37.25;99950.91;4495973;31;34146;-60
2022/07/12 01:58:14;;;;;;;6.60;2.33;;;;;;;19.99;37.22;99957.84;4496067;31;34065;-61
2022/07/12 02:00:42;;;;;;;7.12;2.08;;;;;;;19.96;37.33;99949.19;4497528;31;34193;-60
2022/07/12 02:03:10;;;;;;;6.03;2.40;;;;;;;19.85;37.59;99953.09;4494941;31;34454;-59
2022/07/12 02:05:38;;;;;;;6.93;2.30;;;;;;;19.91;37.57;99960.56;4500726;31;33814;-61
2022/07/12 02:08:05;;;;;;;6.35;2.72;;;;;;;19.85;37.71;99949.53;4497755;31;35268;-59
2022/07/12 02:10:33;;;;;;;8.10;2.80;;;;;;;19.81;37.91;99945.44;4500688;31;34218;-59
2022/07/12 02:13:05;;;;;;;7.70;3.33;;;;;;;19.79;38.21;99953.78;4499050;31;34156;-63
2022/07/12 02:15:33;;;;;;;6.00;2.62;;;;;;;19.81;38.35;99957.19;4500280;31;32273;-62
2022/07/12 02:18:01;;;;;;;7.95;2.37;;;;;;;19.93;38.04;99960.38;4496424;31;35137;-59
2022/07/12 02:20:28;;;;;;;3.70;1.77;;;;;;;19.83;38.29;99949.69;4498651;31;33744;-61
2022/07/12 02:22:56;;;;;;;7.82;2.83;;;;;;;19.85;38.16;99958.53;4498702;31;32362;-61
2022/07/12 02:25:24;;;;;;;7.53;2.40;;;;;;;19.66;38.63;99954.28;4498224;31;33773;-63
2022/07/12 02:27:51;;;;;;;3.40;1.33;;;;;;;19.75;38.38;99955.97;4497805;31;33083;-64
2022/07/12 02:30:18;;;;;;;5.25;2.00;;;;;;;19.81;38.30;99957.19;4499226;31;34072;-64
2022/07/12 02:32:46;;;;;;;6.07;2.37;;;;;;;19.71;38.65;99960.06;4500431;31;33331;-59
2022/07/12 02:35:15;;;;;;;6.28;2.20;;;;;;;19.65;38.63;99965.31;4500385;31;33581;-60
2022/07/12 02:37:42;;;;;;;5.35;2.15;;;;;;;19.59;38.85;99955.94;4497958;31;33415;-59
2022/07/12 02:42:56;;;;;;;6.40;2.37;;;;;;;19.55;38.84;99960.00;4500622;31;33418;-62
2022/07/12 02:45:24;;;;;;;4.15;1.87;;;;;;;19.61;38.83;99961.19;4499530;31;33912;-63
2022/07/12 02:47:51;;;;;;;2.35;1.35;;;;;;;19.51;39.10;99964.06;4498508;31;33824;-61
2022/07/12 02:50:19;;;;;;;4.15;2.15;;;;;;;19.54;39.07;99963.72;4500207;31;34001;-61
2022/07/12 02:52:46;;;;;;;9.40;2.30;;;;;;;19.53;39.14;99964.75;4500525;31;33589;-61
2022/07/12 02:55:14;;;;;;;6.20;2.05;;;;;;;19.33;39.51;99975.06;4499066;31;34024;-59
2022/07/12 02:57:42;;;;;;;4.22;2.03;;;;;;;19.46;39.37;99974.59;4498271;31;32687;-59
2022/07/12 03:00:10;;;;;;;7.95;2.37;;;;;;;19.49;39.36;99974.25;4496336;31;35108;-61
2022/07/12 03:02:38;;;;;;;6.22;2.25;;;;;;;19.42;39.81;99979.50;4499102;31;33407;-59
2022/07/12 03:05:06;;;;;;;5.43;2.00;;;;;;;19.55;39.31;99977.16;4498896;31;34726;-62
2022/07/12 03:07:34;;;;;;;5.50;2.45;;;;;;;19.44;39.63;99974.72;4497253;31;33848;-59
2022/07/12 03:10:01;;;;;;;4.25;1.83;;;;;;;19.47;39.65;99979.81;4499367;31;34780;-59
2022/07/12 03:12:29;;;;;;;4.72;2.22;;;;;;;19.51;39.64;99974.91;4499216;31;32324;-63
2022/07/12 03:14:57;;;;;;;5.82;1.67;;;;;;;19.34;40.27;99981.31;4498476;31;33683;-59
2022/07/12 03:17:24;;;;;;;5.15;1.85;;;;;;;19.42;39.98;99979.50;4498136;31;32711;-59
2022/07/12 03:19:52;;;;;;;4.87;1.90;;;;;;;19.43;39.99;99975.75;4500110;31;34196;-58
2022/07/12 03:22:20;;;;;;;3.20;1.33;;;;;;;19.52;39.74;99980.19;4499011;31;33632;-58
2022/07/12 03:24:47;;;;;;;3.97;1.87;;;;;;;19.37;40.09;99975.56;4499885;31;34863;-59
2022/07/12 03:27:15;;;;;;;5.55;1.80;;;;;;;19.41;40.23;99979.66;4497427;31;32613;-61
2022/07/12 03:29:42;;;;;;;9.40;1.87;;;;;;;19.50;40.01;99979.50;4498731;31;33572;-59
2022/07/12 03:32:10;;;;;;;5.37;1.70;;;;;;;19.59;39.82;99988.50;4499757;31;33634;-60
2022/07/12 03:34:37;;;;;;;3.17;1.45;;;;;;;19.70;39.56;99985.50;4500735;31;32530;-59
2022/07/12 03:37:05;;;;;;;3.83;1.48;;;;;;;19.72;39.34;99988.91;4499736;31;33934;-59
2022/07/12 03:39:33;;;;;;;6.65;1.12;;;;;;;19.77;39.21;99988.38;4500859;31;32909;-61
2022/07/12 03:42:02;;;;;;;2.17;1.12;;;;;;;19.83;39.09;99992.31;4501699;31;34724;-60
2022/07/12 03:44:30;;;;;;;2.58;0.85;;;;;;;19.88;39.07;99993.50;4499733;31;34475;-61
2022/07/12 03:46:58;;;;;;;2.90;0.93;;;;;;;19.88;39.13;99992.66;4501034;31;33826;-60
2022/07/12 03:49:25;;;;;;;2.72;1.42;;;;;;;19.90;39.10;99990.59;4498984;31;33847;-60
2022/07/12 03:51:53;;;;;;;3.28;1.30;;;;;;;19.90;39.45;99987.88;4498918;31;33542;-60
2022/07/12 03:54:21;;;;;;;3.03;1.15;;;;;;;20.07;39.30;99983.31;4501962;31;33677;-60
2022/07/12 03:59:35;;;;;;;2.62;1.37;;;;;;;20.21;38.94;99996.22;4500433;31;33657;-62
2022/07/12 04:02:08;;;;;;;3.47;1.17;;;;;;;19.89;39.43;99991.63;4496794;31;34480;-63
2022/07/12 04:04:36;;;;;;;4.25;1.33;;;;;;;20.28;38.97;99993.66;4501446;31;32397;-64
2022/07/12 04:07:04;;;;;;;2.45;1.02;;;;;;;20.24;39.60;99991.28;4501386;31;35107;-60
2022/07/12 04:09:32;;;;;;;2.80;1.02;;;;;;;20.60;38.77;99999.06;4501565;31;34713;-62
2022/07/12 04:12:00;;;;;;;2.33;1.02;;;;;;;20.58;38.39;99998.41;4495700;31;33308;-61
2022/07/12 04:14:28;;;;;;;7.55;1.90;;;;;;;20.77;37.92;99996.31;4498716;31;34648;-61
2022/07/12 04:16:56;;;;;;;4.22;1.55;;;;;;;20.72;38.28;99994.13;4497779;31;34879;-59
2022/07/12 04:19:27;;;;;;;3.00;1.23;;;;;;;20.89;38.19;99986.75;4500328;31;33865;-59
2022/07/12 04:21:57;;;;;;;2.08;1.15;;;;;;;20.98;37.84;99988.44;4498907;31;34628;-63
2022/07/12 04:24:26;;;;;;;4.25;1.30;;;;;;;20.96;37.91;99998.63;4499305;31;33705;-60
2022/07/12 04:26:53;;;;;;;3.67;1.30;;;;;;;20.92;37.88;99989.97;4500893;31;32913;-59
2022/07/12 04:29:21;;;;;;;4.87;1.35;;;;;;;20.35;38.96;99998.25;4500978;31;34230;-63
2022/07/12 04:31:49;;;;;;;5.87;1.45;;;;;;;20.50;39.03;100001.09;4497175;31;33347;-60
2022/07/12 04:34:17;;;;;;;4.40;1.37;;;;;;;20.49;39.27;99991.25;4496655;31;34716;-59
2022/07/12 04:36:45;;;;;;;2.53;1.10;;;;;;;20.67;38.88;99993.78;4499691;31;35255;-61
2022/07/12 04:39:12;;;;;;;2.30;1.00;;;;;;;20.21;39.45;99993.50;4499796;31;34670;-61
2022/07/12 04:41:40;;;;;;;4.25;1.23;;;;;;;20.15;40.06;99999.63;4497851;31;34265;-62
2022/07/12 04:44:08;;;;;;;3.33;1.40;;;;;;;20.59;39.01;99999.25;4500035;31;33834;-61
2022/07/12 04:46:36;;;;;;;2.15;0.98;;;;;;;20.39;39.88;99988.72;4500329;31;34061;-63
2022/07/12 04:49:06;;;;;;;3.55;1.30;;;;;;;20.99;38.85;99998.28;4499646;31;34081;-61
2022/07/12 04:51:33;;;;;;;4.47;1.40;;;;;;;20.93;38.49;99999.00;4499284;31;33391;-59
2022/07/12 04:54:01;;;;;;;2.25;1.00;;;;;;;21.18;37.73;99999.72;4500720;31;34675;-62
2022/07/12 04:56:29;;;;;;;3.55;1.30;;;;;;;21.10;38.45;99994.34;4499436;31;33972;-59
2022/07/12 04:58:57;;;;;;;5.15;1.45;;;;;;;21.07;38.37;100006.41;4499723;31;33970;-60
2022/07/12 05:01:29;;;;;;;2.62;1.00;;;;;;;21.45;37.93;100003.91;4497568;31;33474;-63
2022/07/12 05:03:56;;;;;;;4.43;1.10;;;;;;;21.27;38.34;99998.66;4500506;31;33914;-60
2022/07/12 05:06:24;;;;;;;3.00;1.37;;;;;;;21.34;38.26;100005.09;4495965;31;32772;-60
2022/07/12 05:08:52;;;;;;;3.00;1.00;;;;;;;21.56;37.81;99997.19;4485432;31;33984;-59
2022/07/12 05:11:19;;;;;;;5.32;1.10;;;;;;;21.11;38.00;99998.75;4490686;31;33495;-60
2022/07/12 05:13:47;;;;;;;2.50;1.20;;;;;;;21.58;37.33;100006.03;4500392;31;34778;-60
2022/07/12 05:16:15;;;;;;;3.25;1.37;;;;;;;21.39;37.46;99993.72;4499246;31;32845;-61
2022/07/12 05:18:43;;;;;;;3.67;1.20;;;;;;;21.67;37.20;100012.25;4495911;31;35287;-60
2022/07/12 05:21:10;;;;;;;2.95;1.27;;;;;;;21.66;37.67;100010.56;4500352;31;33663;-60
2022/07/12 05:23:38;;;;;;;5.05;1.60;;;;;;;20.85;38.91;100005.31;4499404;31;32455;-63
2022/07/12 05:26:06;;;;;;;2.47;1.10;;;;;;;21.03;38.84;100017.84;4499215;31;33815;-60
2022/07/12 05:28:39;;;;;;;7.18;1.30;;;;;;;21.16;38.33;100023.56;4490265;31;32895;-63
2022/07/12 05:31:09;;;;;;;3.47;1.20;;;;;;;21.88;37.41;100015.19;4497409;31;33785;-60
2022/07/12 05:33:37;;;;;;;4.47;1.33;;;;;;;20.83;38.17;100017.38;4496158;31;33087;-60
2022/07/12 05:36:05;;;;;;;4.57;1.20;;;;;;;20.51;39.78;100016.41;4495363;31;33891;-60
2022/07/12 05:38:32;;;;;;;3.92;1.30;;;;;;;21.40;38.30;100017.19;4498115;31;35485;-62
2022/07/12 05:41:00;;;;;;;3.78;1.10;;;;;;;20.91;39.33;100010.06;4500430;31;34371;-62
2022/07/12 05:43:28;;;;;;;2.67;1.25;;;;;;;21.10;38.88;100013.37;4498531;31;33648;-60
2022/07/12 05:45:55;;;;;;;2.30;1.05;;;;;;;21.50;38.22;100004.19;4489461;31;35135;-62
2022/07/12 05:48:23;;;;;;;3.62;1.35;;;;;;;21.40;39.09;100009.84;4497516;31;35228;-62
2022/07/12 05:50:51;;;;;;;4.03;1.40;;;;;;;22.01;38.01;100006.41;4498858;31;34162;-60
2022/07/12 05:53:24;;;;;;;4.25;1.35;;;;;;;21.31;39.47;100013.63;4496535;31;33838;-59
2022/07/12 05:55:53;;;;;;;5.62;1.17;;;;;;;21.04;39.59;100014.94;4492442;31;33726;-59
2022/07/12 05:58:21;;;;;;;9.50;1.60;;;;;;;21.62;39.10;100010.09;4498604;31;34735;-63
2022/07/12 06:00:49;;;;;;;3.95;1.27;;;;;;;21.99;38.11;100012.06;4497708;31;34673;-60
2022/07/12 06:03:16;;;;;;;3.60;1.20;;;;;;;21.65;38.96;100008.88;4495228;31;33644;-60
2022/07/12 06:05:44;;;;;;;3.75;1.25;;;;;;;21.92;37.50;100008.34;4498797;31;35268;-59
2022/07/12 06:08:12;;;;;;;3.33;1.05;;;;;;;21.65;38.58;100006.16;4497925;31;36731;-60
2022/07/12 06:10:39;;;;;;;1.65;1.08;;;;;;;21.98;38.07;100006.78;4497850;31;33233;-63
2022/07/12 06:13:07;;;;;;;2.33;0.95;;;;;;;21.74;38.64;100000.47;4497689;31;32416;-61
2022/07/12 06:15:35;;;;;;;3.33;1.05;;;;;;;21.85;38.53;99991.88;4483055;31;33684;-60
2022/07/12 06:18:03;;;;;;;6.00;1.33;;;;;;;21.93;38.37;100001.03;4481799;31;33085;-62
2022/07/12 06:20:30;;;;;;;5.10;1.33;;;;;;;22.06;37.37;99993.09;4498189;31;33668;-61
2022/07/12 06:22:58;;;;;;;4.20;1.08;;;;;;;22.08;37.60;99997.31;4499687;31;33776;-61
2022/07/12 06:25:26;;;;;;;4.80;1.15;;;;;;;22.18;37.31;99994.34;4496910;31;33782;-62
2022/07/12 06:28:12;;;;;;;1.23;0.88;;;;;;;22.71;36.20;99997.94;4495210;31;34053;-63
2022/07/12 06:30:40;;;;;;;2.00;0.80;;;;;;;22.63;36.35;99995.31;4493884;31;34563;-60
2022/07/12 06:33:08;;;;;;;3.33;1.15;;;;;;;22.88;36.21;99998.59;4497459;31;33600;-60
2022/07/12 06:35:36;;;;;;;2.92;1.02;;;;;;;22.61;36.68;99996.53;4499319;31;33674;-60
2022/07/12 06:38:03;;;;;;;4.53;0.90;;;;;;;22.91;35.37;100000.09;4495684;31;34160;-62
2022/07/12 06:40:31;;;;;;;3.00;1.08;;;;;;;22.79;35.90;100006.06;4496621;31;33547;-60
2022/07/12 06:42:59;;;;;;;3.92;1.35;;;;;;;23.02;35.12;100003.25;4497083;31;33711;-63
2022/07/12 06:45:27;;;;;;;4.62;1.33;;;;;;;21.96;37.32;99998.78;4496330;31;35175;-60
2022/07/12 06:47:54;;;;;;;4.10;1.33;;;;;;;22.29;36.92;100012.19;4487800;31;34921;-60
2022/07/12 06:50:22;;;;;;;4.45;1.42;;;;;;;22.26;37.04;100004.38;4499237;31;33707;-62
2022/07/12 06:52:50;;;;;;;2.10;0.80;;;;;;;21.74;37.96;100002.38;4492298;31;33670;-60
2022/07/12 06:55:18;;;;;;;4.65;0.90;;;;;;;21.69;37.87;99996.59;4499858;31;33569;-60
2022/07/12 06:57:45;;;;;;;2.97;1.05;;;;;;;21.95;36.96;99999.81;4496569;31;34344;-62
2022/07/12 07:00:13;;;;;;;2.80;0.90;;;;;;;22.44;36.73;100002.16;4499541;31;33712;-60
2022/07/12 07:02:41;;;;;;;3.47;1.20;;;;;;;21.91;37.79;100000.37;4495229;31;34120;-60
2022/07/12 07:05:10;;;;;;;2.67;1.02;;;;;;;22.63;37.47;99998.03;4496148;31;32703;-60
2022/07/12 07:07:38;;;;;;;2.55;1.10;;;;;;;22.56;37.24;100000.66;4497204;31;35633;-60
2022/07/12 07:10:06;;;;;;;1.77;1.00;;;;;;;22.36;36.78;99998.66;4498838;31;33185;-60
2022/07/12 07:12:34;;;;;;;3.90;1.08;;;;;;;22.08;36.95;99994.59;4498010;31;33308;-59
2022/07/12 07:15:02;;;;;;;3.42;1.12;;;;;;;22.00;37.11;100004.72;4497625;31;35121;-62
2022/07/12 07:17:29;;;;;;;5.25;1.15;;;;;;;22.23;36.36;100002.00;4496429;31;34211;-61
2022/07/12 07:19:57;;;;;;;3.05;0.90;;;;;;;22.42;36.77;99995.19;4495147;31;33603;-60
2022/07/12 07:22:25;;;;;;;3.37;0.90;;;;;;;23.05;35.30;99996.56;4495879;31;34832;-63
2022/07/12 07:24:53;;;;;;;2.87;0.93;;;;;;;22.41;36.28;99999.78;4496035;31;34246;-61
2022/07/12 07:27:20;;;;;;;3.08;1.30;;;;;;;22.35;36.68;100007.88;4495887;31;31621;-61
2022/07/12 07:32:34;;;;;;;3.08;0.90;;;;;;;22.01;36.82;99992.78;4495622;31;32711;-60
2022/07/12 07:35:05;;;;;;;3.35;1.37;;;;;;;22.19;36.66;100000.69;4494830;31;34059;-61
2022/07/12 07:37:33;;;;;;;3.87;0.98;;;;;;;22.56;35.83;99994.34;4495700;31;33144;-64
2022/07/12 07:40:01;;;;;;;1.95;0.88;;;;;;;22.60;37.13;100003.88;4495504;31;33139;-61
2022/07/12 07:42:29;;;;;;;5.70;1.25;;;;;;;22.44;36.25;100001.28;4493877;31;32466;-60
2022/07/12 07:44:56;;;;;;;8.60;1.55;;;;;;;22.06;36.97;99996.66;4497654;31;33962;-63
2022/07/12 07:47:48;;;;;;;5.20;1.27;;;;;;;22.38;36.39;99996.59;4486929;31;35208;-61
2022/07/12 07:50:36;;;;;;;2.60;1.10;;;;;;;22.71;35.95;100003.41;4497041;31;33235;-61
2022/07/12 07:53:04;;;;;;;7.10;1.42;;;;;;;22.87;35.93;99999.63;4495206;31;34800;-61
2022/07/12 07:55:33;;;;;;;3.50;1.10;;;;;;;22.64;35.68;100001.62;4499072;31;35306;-60
2022/07/12 07:58:01;;;;;;;4.95;1.30;;;;;;;22.96;36.32;99992.25;4486632;31;34300;-63
2022/07/12 08:00:29;;;;;;;8.30;1.30;;;;;;;23.34;34.96;99994.81;4494920;31;33658;-59
2022/07/12 08:02:57;;;;;;;3.15;1.27;;;;;;;23.15;35.59;99996.28;4496194;31;33673;-61
2022/07/12 08:05:25;;;;;;;3.78;1.40;;;;;;;23.12;36.39;99989.31;4498901;31;33981;-60
2022/07/12 08:07:56;;;;;;;4.40;1.40;;;;;;;23.61;34.50;100004.19;4497377;31;35306;-62
2022/07/12 08:10:26;;;;;;;6.97;1.48;;;;;;;23.68;35.00;99997.78;4492828;31;34271;-60
2022/07/12 08:12:53;;;;;;;2.85;1.20;;;;;;;23.80;34.65;99989.91;4497980;31;34697;-61
2022/07/12 08:15:22;;;;;;;4.50;1.40;;;;;;;23.68;34.26;100003.22;4489344;31;34578;-63
2022/07/12 08:17:51;;;;;;;2.15;1.10;;;;;;;23.59;35.40;100004.34;4498203;31;35324;-62
2022/07/12 08:20:22;;;;;;;5.55;1.50;;;;;;;23.46;34.53;99999.59;4496632;31;34292;-63
2022/07/12 08:23:10;;;;;;;8.68;1.73;;;;;;;23.44;35.20;99989.91;4495306;31;34538;-61
2022/07/12 08:25:38;;;;;;;3.10;1.20;;;;;;;23.79;34.21;100006.50;4496761;31;34021;-61
2022/07/12 08:28:06;;;;;;;4.87;1.70;;;;;;;23.37;34.81;100013.53;4498342;31;34893;-60
2022/07/12 08:30:34;;;;;;;6.68;1.58;;;;;;;23.35;34.72;100008.28;4496082;31;34583;-60
2022/07/12 08:33:11;;;;;;;4.45;1.48;;;;;;;23.15;34.86;100009.94;4498284;31;33900;-60
2022/07/12 08:35:39;;;;;;;3.22;1.30;;;;;;;22.80;35.54;100017.81;4498955;31;33516;-60
2022/07/12 08:38:06;;;;;;;4.78;1.60;;;;;;;23.28;34.72;99999.19;4493885;31;32829;-61
2022/07/12 08:40:34;;;;;;;3.58;1.25;;;;;;;23.54;34.80;100003.25;4494940;31;33861;-64
2022/07/12 08:43:02;;;;;;;4.50;1.58;;;;;;;23.35;34.44;100005.56;4495921;31;33638;-60
2022/07/12 08:45:30;;;;;;;6.20;1.70;;;;;;;23.88;34.01;99998.00;4499554;31;32921;-61
2022/07/12 08:47:58;;;;;;;4.10;1.27;;;;;;;23.77;34.03;99997.66;4489472;31;33885;-60
2022/07/12 08:50:29;;;;;;;6.28;1.40;;;;;;;23.70;33.95;100003.91;4483352;31;34536;-60
2022/07/12 08:52:56;;;;;;;4.97;1.23;;;;;;;23.91;33.02;99996.75;4490672;31;34389;-63
2022/07/12 08:55:26;;;;;;;17.87;2.10;;;;;;;23.79;33.18;99980.03;4497546;31;33356;-60
2022/07/12 08:57:55;;;;;;;6.80;1.33;;;;;;;24.15;32.80;99988.16;4488985;31;32745;-61
2022/07/12 09:00:25;;;;;;;4.07;1.35;;;;;;;24.08;33.14;99976.31;4498435;31;34806;-60
2022/07/12 09:02:57;;;;;;;5.97;1.30;;;;;;;23.79;33.54;99982.78;4500764;31;33627;-63
2022/07/12 09:05:27;;;;;;;4.60;1.12;;;;;;;24.08;32.83;99981.78;4498579;31;34232;-61
2022/07/12 09:08:03;;;;;;;4.15;1.17;;;;;;;24.32;32.42;99988.69;4483580;31;33784;-64
2022/07/12 09:10:32;;;;;;;2.35;1.00;;;;;;;24.91;30.83;99979.25;4491725;31;34005;-63
2022/07/12 09:13:00;;;;;;;3.45;0.95;;;;;;;24.88;31.21;99985.13;4499898;31;33557;-59
2022/07/12 09:15:27;;;;;;;3.37;1.35;;;;;;;24.90;31.21;99985.75;4500633;31;34448;-61
2022/07/12 09:18:01;;;;;;;3.12;1.15;;;;;;;25.56;31.04;99974.28;4496908;31;34035;-61
2022/07/12 09:20:31;;;;;;;2.92;0.98;;;;;;;25.68;29.48;99978.09;4495747;31;32181;-65
2022/07/12 09:23:01;;;;;;;1.73;0.82;;;;;;;25.67;29.65;99981.88;4499448;31;34162;-64
2022/07/12 09:25:28;;;;;;;3.40;1.10;;;;;;;25.29;29.77;99974.16;4500827;31;35231;-61
2022/07/12 09:27:58;;;;;;;4.45;1.00;;;;;;;24.67;31.19;99975.09;4498514;31;35057;-60
2022/07/12 09:30:28;;;;;;;2.35;0.85;;;;;;;24.75;31.02;99988.63;4496761;31;33473;-60
2022/07/12 09:36:06;;;;;;;2.10;0.88;;;;;;;24.30;31.61;99982.59;4499832;31;35255;-63
2022/07/12 09:38:39;;;;;;;3.03;1.05;;;;;;;23.80;32.08;99973.50;4484070;31;33632;-64
2022/07/12 09:41:07;;;;;;;3.28;1.10;;;;;;;24.10;31.93;99973.38;4498289;31;31895;-63
2022/07/12 09:43:35;;;;;;;3.33;1.23;;;;;;;24.14;31.84;99971.91;4490195;31;33792;-61
2022/07/12 09:46:03;;;;;;;4.07;0.88;;;;;;;24.64;30.93;99980.97;4497664;31;33924;-63
2022/07/12 09:48:30;;;;;;;1.55;0.85;;;;;;;24.47;31.31;99965.91;4485476;31;32681;-61
2022/07/12 09:50:58;;;;;;;3.87;0.90;;;;;;;24.43;31.00;99964.59;4491545;31;34858;-62
2022/07/12 09:53:46;;;;;;;3.62;1.17;;;;;;;24.72;30.92;99958.94;4500577;31;34596;-61
2022/07/12 09:56:17;;;;;;;2.05;0.93;;;;;;;24.78;30.29;99971.81;4498714;31;33673;-62
2022/07/12 09:58:52;;;;;;;3.17;0.90;;;;;;;24.68;30.25;99981.41;4496720;31;34111;-63
2022/07/12 10:01:21;;;;;;;4.03;1.27;;;;;;;24.92;29.96;99974.62;4491769;31;34916;-63
2022/07/12 10:03:51;;;;;;;4.57;1.30;;;;;;;25.16;29.80;99967.81;4496201;31;34037;-62
2022/07/12 10:06:26;;;;;;;9.27;1.20;;;;;;;25.19;29.78;99965.50;4496456;31;33837;-62
2022/07/12 10:09:02;;;;;;;3.55;0.90;;;;;;;25.12;29.51;99961.03;4496258;31;34490;-61
2022/07/12 10:11:30;;;;;;;3.17;0.90;;;;;;;24.93;30.27;99968.09;4496368;31;33515;-64
2022/07/12 10:14:20;;;;;;;4.10;0.93;;;;;;;25.11;29.71;99968.41;4479169;31;32510;-62
2022/07/12 10:16:50;;;;;;;17.83;1.80;;;;;;;25.22;29.44;99970.56;4478685;31;34047;-62
2022/07/12 10:19:29;;;;;;;2.17;0.98;;;;;;;24.96;29.56;99964.94;4486496;31;32479;-60
2022/07/12 10:21:59;;;;;;;4.00;0.90;;;;;;;25.22;29.47;99964.25;4495157;31;33835;-60
2022/07/12 10:24:54;;;;;;;2.17;0.80;;;;;;;25.49;28.83;99956.94;4493590;31;34309;-62
2022/07/12 10:27:24;;;;;;;4.10;0.98;;;;;;;25.13;28.63;99941.66;4483903;31;34151;-62
2022/07/12 10:29:52;;;;;;;1.45;0.80;;;;;;;25.74;28.30;99944.34;4492534;31;35103;-61
2022/07/12 10:32:25;;;;;;;1.37;0.80;;;;;;;25.81;27.19;99957.25;4487726;31;34341;-60
2022/07/12 10:35:01;;;;;;;1.62;0.77;;;;;;;26.27;26.52;99954.56;4498951;31;35039;-62
2022/07/12 10:37:29;;;;;;;1.15;0.55;;;;;;;26.47;26.46;99938.06;4492778;31;33983;-62
2022/07/12 10:40:17;;;;;;;4.30;1.08;;;;;;;26.08;27.25;99941.69;4499954;31;35338;-62
2022/07/12 10:43:07;;;;;;;3.35;0.88;;;;;;;25.74;27.84;99938.88;4493613;31;34734;-61
2022/07/12 10:45:40;;;;;;;8.38;1.35;;;;;;;25.32;27.63;99923.59;4497224;31;35068;-60
2022/07/12 10:48:18;;;;;;;2.45;1.10;;;;;;;25.28;27.97;99942.34;4488192;31;32649;-61
2022/07/12 10:50:48;;;;;;;2.25;1.10;;;;;;;25.21;28.78;99940.66;4483340;31;32430;-61
2022/07/12 10:53:18;;;;;;;7.43;2.05;;;;;;;24.70;30.33;99974.69;4499025;31;33978;-59
2022/07/12 10:56:05;;;;;;;9.65;1.80;;;;;;;23.47;38.57;100025.88;4499536;31;32727;-61
2022/07/12 10:58:43;;;;;;;3.30;1.23;;;;;;;21.75;46.09;100031.28;4495897;31;32837;-62
2022/07/12 11:01:13;;;;;;;3.80;1.17;;;;;;;22.33;45.58;100027.97;4492050;31;34460;-61
2022/07/12 11:03:40;;;;;;;5.85;1.40;;;;;;;22.70;45.81;100009.06;4496952;31;33626;-64
2022/07/12 11:06:11;;;;;;;4.22;1.15;;;;;;;23.44;44.78;99995.38;4499013;31;32730;-60
2022/07/12 11:09:02;;;;;;;2.33;1.00;;;;;;;23.68;45.77;99995.03;4497286;31;33556;-63
2022/07/12 11:11:35;;;;;;;4.15;1.20;;;;;;;23.74;46.93;99987.97;4496174;31;35064;-60
2022/07/12 11:14:03;;;;;;;5.18;1.65;;;;;;;23.90;46.18;99989.59;4499942;31;33680;-60
2022/07/12 11:16:31;;;;;;;4.85;1.70;;;;;;;24.50;48.80;99985.50;4491930;31;32382;-60
2022/07/12 11:19:00;;;;;;;6.40;1.58;;;;;;;24.55;48.66;99976.69;4496713;31;35001;-60
2022/07/12 11:21:28;;;;;;;4.28;1.52;;;;;;;24.77;46.88;99977.47;4488299;31;33666;-60
2022/07/12 11:23:55;;;;;;;6.05;1.20;;;;;;;25.25;46.55;99961.09;4495377;31;34809;-60
2022/07/12 11:26:23;;;;;;;2.92;1.40;;;;;;;25.23;40.51;99958.59;4498743;31;34673;-62
2022/07/12 11:28:51;;;;;;;2.87;1.30;;;;;;;24.68;45.41;99951.31;4498042;31;34932;-60
2022/07/12 11:31:19;;;;;;;4.40;0.98;;;;;;;24.90;43.32;99957.53;4495901;31;33517;-60
2022/07/12 11:33:47;;;;;;;2.58;0.90;;;;;;;24.94;37.34;99940.50;4495948;31;32800;-60
2022/07/12 11:36:15;;;;;;;2.80;1.20;;;;;;;24.38;36.42;99938.66;4492694;31;34148;-60
2022/07/12 11:38:45;;;;;;;3.00;1.30;;;;;;;24.48;37.25;99934.78;4496628;31;32837;-63
2022/07/12 11:41:13;;;;;;;3.40;1.40;;;;;;;24.82;37.51;99951.19;4483596;31;34017;-60
2022/07/12 11:43:42;;;;;;;3.15;1.15;;;;;;;24.29;39.86;99953.53;4498695;31;34946;-60
2022/07/12 11:46:10;;;;;;;2.33;0.95;;;;;;;24.61;36.37;99937.59;4497999;31;33612;-61
2022/07/12 11:48:38;;;;;;;3.83;1.00;;;;;;;24.70;34.86;99930.91;4494324;31;33684;-61
2022/07/12 11:51:08;;;;;;;2.83;1.10;;;;;;;25.06;37.10;99916.13;4481176;31;33542;-62
2022/07/12 11:53:37;;;;;;;1.33;0.80;;;;;;;25.56;34.97;99925.78;4484468;31;33936;-63